sensor_id;sensor_type;location;lat;lon;timestamp;P1;durP1;ratioP1;P2;durP2;ratioP2
52440;SDS011;39611;46.062;8.950;2022-10-12T00:00:58;4.03;;;2.30;;
52440;SDS011;39611;46.062;8.950;2022-10-12T00:03:25;4.90;;;1.88;;
52440;SDS011;39611;46.062;8.950;2022-10-12T00:06:04;3.33;;;2.00;;
52440;SDS011;39611;46.062;8.950;2022-10-12T00:08:41;3.67;;;1.83;;
52440;SDS011;39611;46.062;8.950;2022-10-12T00:11:14;3.45;;;1.83;;
52440;SDS011;39611;46.062;8.950;2022-10-12T00:13:46;4.13;;;1.90;;
52440;SDS011;39611;46.062;8.950;2022-10-12T00:16:13;4.07;;;2.05;;
52440;SDS011;39611;46.062;8.950;2022-10-12T00:18:41;5.72;;;2.90;;
52440;SDS011;39611;46.062;8.950;2022-10-12T00:23:41;4.03;;;2.00;;
52440;SDS011;39611;46.062;8.950;2022-10-12T00:26:15;4.72;;;2.17;;
52440;SDS011;39611;46.062;8.950;2022-10-12T00:28:47;3.25;;;1.98;;
52440;SDS011;39611;46.062;8.950;2022-10-12T00:31:15;5.60;;;2.13;;
52440;SDS011;39611;46.062;8.950;2022-10-12T00:33:43;2.35;;;1.52;;
52440;SDS011;39611;46.062;8.950;2022-10-12T00:36:17;6.55;;;2.10;;
52440;SDS011;39611;46.062;8.950;2022-10-12T00:38:49;5.25;;;1.95;;
52440;SDS011;39611;46.062;8.950;2022-10-12T00:41:17;3.60;;;2.05;;
52440;SDS011;39611;46.062;8.950;2022-10-12T00:43:45;3.67;;;2.05;;
52440;SDS011;39611;46.062;8.950;2022-10-12T00:46:16;3.45;;;2.03;;
52440;SDS011;39611;46.062;8.950;2022-10-12T00:48:46;3.90;;;1.83;;
52440;SDS011;39611;46.062;8.950;2022-10-12T00:51:15;3.97;;;2.20;;
52440;SDS011;39611;46.062;8.950;2022-10-12T00:53:47;4.60;;;2.35;;
52440;SDS011;39611;46.062;8.950;2022-10-12T00:56:21;4.22;;;2.08;;
52440;SDS011;39611;46.062;8.950;2022-10-12T00:58:50;5.47;;;1.98;;
52440;SDS011;39611;46.062;8.950;2022-10-12T01:01:20;3.92;;;2.28;;
52440;SDS011;39611;46.062;8.950;2022-10-12T01:03:47;3.22;;;1.80;;
52440;SDS011;39611;46.062;8.950;2022-10-12T01:06:14;5.47;;;1.42;;
52440;SDS011;39611;46.062;8.950;2022-10-12T01:08:41;2.60;;;1.50;;
52440;SDS011;39611;46.062;8.950;2022-10-12T01:11:08;4.70;;;1.85;;
52440;SDS011;39611;46.062;8.950;2022-10-12T01:13:34;3.83;;;2.10;;
52440;SDS011;39611;46.062;8.950;2022-10-12T01:16:05;4.40;;;2.20;;
52440;SDS011;39611;46.062;8.950;2022-10-12T01:18:49;3.50;;;1.90;;
52440;SDS011;39611;46.062;8.950;2022-10-12T01:21:18;5.88;;;2.08;;
52440;SDS011;39611;46.062;8.950;2022-10-12T01:31:46;6.93;;;3.28;;
52440;SDS011;39611;46.062;8.950;2022-10-12T01:36:53;7.45;;;2.67;;
52440;SDS011;39611;46.062;8.950;2022-10-12T01:42:23;2.42;;;1.67;;
52440;SDS011;39611;46.062;8.950;2022-10-12T01:45:10;4.32;;;1.77;;
52440;SDS011;39611;46.062;8.950;2022-10-12T01:47:43;2.90;;;1.65;;
52440;SDS011;39611;46.062;8.950;2022-10-12T01:50:14;5.90;;;1.88;;
52440;SDS011;39611;46.062;8.950;2022-10-12T01:55:23;4.20;;;1.70;;
52440;SDS011;39611;46.062;8.950;2022-10-12T02:00:39;4.63;;;2.15;;
52440;SDS011;39611;46.062;8.950;2022-10-12T02:03:19;5.70;;;2.13;;
52440;SDS011;39611;46.062;8.950;2022-10-12T02:05:59;3.75;;;2.03;;
52440;SDS011;39611;46.062;8.950;2022-10-12T02:08:33;4.90;;;2.00;;
52440;SDS011;39611;46.062;8.950;2022-10-12T02:11:12;7.40;;;3.05;;
52440;SDS011;39611;46.062;8.950;2022-10-12T02:13:45;5.18;;;2.63;;
52440;SDS011;39611;46.062;8.950;2022-10-12T02:16:17;6.65;;;2.40;;
52440;SDS011;39611;46.062;8.950;2022-10-12T02:18:46;3.58;;;1.67;;
52440;SDS011;39611;46.062;8.950;2022-10-12T02:21:17;3.03;;;1.58;;
52440;SDS011;39611;46.062;8.950;2022-10-12T02:23:48;4.20;;;1.42;;
52440;SDS011;39611;46.062;8.950;2022-10-12T02:26:16;5.18;;;1.70;;
52440;SDS011;39611;46.062;8.950;2022-10-12T02:28:44;3.53;;;2.00;;
52440;SDS011;39611;46.062;8.950;2022-10-12T02:31:16;4.50;;;1.42;;
52440;SDS011;39611;46.062;8.950;2022-10-12T02:39:17;3.13;;;1.30;;
52440;SDS011;39611;46.062;8.950;2022-10-12T02:41:49;4.40;;;1.63;;
52440;SDS011;39611;46.062;8.950;2022-10-12T02:44:19;4.03;;;1.75;;
52440;SDS011;39611;46.062;8.950;2022-10-12T02:46:49;5.53;;;2.28;;
52440;SDS011;39611;46.062;8.950;2022-10-12T02:49:19;4.20;;;1.85;;
52440;SDS011;39611;46.062;8.950;2022-10-12T02:51:49;4.53;;;2.10;;
52440;SDS011;39611;46.062;8.950;2022-10-12T02:54:16;4.82;;;2.00;;
52440;SDS011;39611;46.062;8.950;2022-10-12T02:56:43;3.45;;;1.83;;
52440;SDS011;39611;46.062;8.950;2022-10-12T02:59:11;3.83;;;1.48;;
52440;SDS011;39611;46.062;8.950;2022-10-12T03:01:39;3.25;;;1.70;;
52440;SDS011;39611;46.062;8.950;2022-10-12T03:04:06;3.63;;;1.50;;
52440;SDS011;39611;46.062;8.950;2022-10-12T03:06:32;3.45;;;1.38;;
52440;SDS011;39611;46.062;8.950;2022-10-12T03:08:59;2.42;;;1.20;;
52440;SDS011;39611;46.062;8.950;2022-10-12T03:11:26;3.40;;;1.70;;
52440;SDS011;39611;46.062;8.950;2022-10-12T03:13:53;2.22;;;1.05;;
52440;SDS011;39611;46.062;8.950;2022-10-12T03:16:20;2.38;;;1.30;;
52440;SDS011;39611;46.062;8.950;2022-10-12T03:18:47;2.33;;;1.30;;
52440;SDS011;39611;46.062;8.950;2022-10-12T03:21:14;3.47;;;1.48;;
52440;SDS011;39611;46.062;8.950;2022-10-12T03:23:41;2.28;;;1.25;;
52440;SDS011;39611;46.062;8.950;2022-10-12T03:26:07;2.78;;;1.35;;
52440;SDS011;39611;46.062;8.950;2022-10-12T03:28:33;3.35;;;1.70;;
52440;SDS011;39611;46.062;8.950;2022-10-12T03:31:00;2.83;;;1.55;;
52440;SDS011;39611;46.062;8.950;2022-10-12T03:33:27;3.00;;;1.48;;
52440;SDS011;39611;46.062;8.950;2022-10-12T03:35:54;1.92;;;1.00;;
52440;SDS011;39611;46.062;8.950;2022-10-12T03:38:20;2.13;;;1.20;;
52440;SDS011;39611;46.062;8.950;2022-10-12T03:40:47;2.25;;;1.10;;
52440;SDS011;39611;46.062;8.950;2022-10-12T03:43:13;1.92;;;1.23;;
52440;SDS011;39611;46.062;8.950;2022-10-12T03:45:40;2.45;;;1.40;;
52440;SDS011;39611;46.062;8.950;2022-10-12T03:48:06;3.33;;;1.35;;
52440;SDS011;39611;46.062;8.950;2022-10-12T03:50:33;3.40;;;1.25;;
52440;SDS011;39611;46.062;8.950;2022-10-12T03:53:01;2.72;;;1.63;;
52440;SDS011;39611;46.062;8.950;2022-10-12T03:55:28;3.45;;;1.30;;
52440;SDS011;39611;46.062;8.950;2022-10-12T03:57:54;2.45;;;1.25;;
52440;SDS011;39611;46.062;8.950;2022-10-12T04:00:21;2.25;;;1.40;;
52440;SDS011;39611;46.062;8.950;2022-10-12T04:02:47;2.53;;;1.20;;
52440;SDS011;39611;46.062;8.950;2022-10-12T04:05:14;2.85;;;1.60;;
52440;SDS011;39611;46.062;8.950;2022-10-12T04:07:40;9.75;;;2.88;;
52440;SDS011;39611;46.062;8.950;2022-10-12T04:10:07;7.00;;;2.53;;
52440;SDS011;39611;46.062;8.950;2022-10-12T04:12:33;3.72;;;1.90;;
52440;SDS011;39611;46.062;8.950;2022-10-12T04:15:00;2.13;;;1.20;;
52440;SDS011;39611;46.062;8.950;2022-10-12T04:17:26;3.65;;;1.70;;
52440;SDS011;39611;46.062;8.950;2022-10-12T04:19:52;2.25;;;1.38;;
52440;SDS011;39611;46.062;8.950;2022-10-12T04:22:19;3.63;;;1.70;;
52440;SDS011;39611;46.062;8.950;2022-10-12T04:24:45;2.88;;;1.58;;
52440;SDS011;39611;46.062;8.950;2022-10-12T04:27:12;2.50;;;1.35;;
52440;SDS011;39611;46.062;8.950;2022-10-12T04:29:38;4.28;;;1.67;;
52440;SDS011;39611;46.062;8.950;2022-10-12T04:32:04;4.40;;;1.52;;
52440;SDS011;39611;46.062;8.950;2022-10-12T04:34:37;3.03;;;1.63;;
52440;SDS011;39611;46.062;8.950;2022-10-12T04:37:03;3.45;;;2.08;;
52440;SDS011;39611;46.062;8.950;2022-10-12T04:39:30;3.55;;;2.35;;
52440;SDS011;39611;46.062;8.950;2022-10-12T04:41:56;7.13;;;2.20;;
52440;SDS011;39611;46.062;8.950;2022-10-12T04:44:23;3.75;;;2.25;;
52440;SDS011;39611;46.062;8.950;2022-10-12T04:46:56;4.50;;;2.67;;
52440;SDS011;39611;46.062;8.950;2022-10-12T04:49:22;7.10;;;2.65;;
52440;SDS011;39611;46.062;8.950;2022-10-12T04:51:49;2.97;;;1.80;;
52440;SDS011;39611;46.062;8.950;2022-10-12T04:54:15;2.83;;;1.63;;
52440;SDS011;39611;46.062;8.950;2022-10-12T04:56:42;3.30;;;1.65;;
52440;SDS011;39611;46.062;8.950;2022-10-12T04:59:13;2.67;;;1.38;;
52440;SDS011;39611;46.062;8.950;2022-10-12T05:01:39;9.15;;;2.47;;
52440;SDS011;39611;46.062;8.950;2022-10-12T05:04:06;11.45;;;5.65;;
52440;SDS011;39611;46.062;8.950;2022-10-12T05:06:32;14.52;;;6.38;;
52440;SDS011;39611;46.062;8.950;2022-10-12T05:08:59;17.27;;;7.53;;
52440;SDS011;39611;46.062;8.950;2022-10-12T05:11:25;17.17;;;8.18;;
52440;SDS011;39611;46.062;8.950;2022-10-12T05:13:51;14.20;;;5.97;;
52440;SDS011;39611;46.062;8.950;2022-10-12T05:16:18;7.72;;;3.42;;
52440;SDS011;39611;46.062;8.950;2022-10-12T05:18:44;5.88;;;3.08;;
52440;SDS011;39611;46.062;8.950;2022-10-12T05:21:11;4.78;;;2.85;;
52440;SDS011;39611;46.062;8.950;2022-10-12T05:23:37;4.50;;;2.95;;
52440;SDS011;39611;46.062;8.950;2022-10-12T05:26:03;2.47;;;1.20;;
52440;SDS011;39611;46.062;8.950;2022-10-12T05:28:30;3.47;;;2.13;;
52440;SDS011;39611;46.062;8.950;2022-10-12T05:31:02;3.28;;;2.38;;
52440;SDS011;39611;46.062;8.950;2022-10-12T05:33:28;5.20;;;2.08;;
52440;SDS011;39611;46.062;8.950;2022-10-12T05:35:55;3.03;;;2.03;;
52440;SDS011;39611;46.062;8.950;2022-10-12T05:38:21;3.20;;;1.80;;
52440;SDS011;39611;46.062;8.950;2022-10-12T05:40:48;5.03;;;2.47;;
52440;SDS011;39611;46.062;8.950;2022-10-12T05:43:14;3.95;;;2.45;;
52440;SDS011;39611;46.062;8.950;2022-10-12T05:45:41;3.42;;;2.00;;
52440;SDS011;39611;46.062;8.950;2022-10-12T05:48:08;3.00;;;1.58;;
52440;SDS011;39611;46.062;8.950;2022-10-12T05:50:34;2.95;;;1.65;;
52440;SDS011;39611;46.062;8.950;2022-10-12T05:53:00;2.70;;;1.58;;
52440;SDS011;39611;46.062;8.950;2022-10-12T05:55:27;3.95;;;2.20;;
52440;SDS011;39611;46.062;8.950;2022-10-12T05:57:53;5.60;;;3.05;;
52440;SDS011;39611;46.062;8.950;2022-10-12T06:00:21;5.72;;;1.90;;
52440;SDS011;39611;46.062;8.950;2022-10-12T06:02:47;2.72;;;1.30;;
52440;SDS011;39611;46.062;8.950;2022-10-12T06:05:14;3.72;;;1.70;;
52440;SDS011;39611;46.062;8.950;2022-10-12T06:07:40;5.95;;;1.90;;
52440;SDS011;39611;46.062;8.950;2022-10-12T06:10:07;5.60;;;2.45;;
52440;SDS011;39611;46.062;8.950;2022-10-12T06:12:34;4.40;;;2.25;;
52440;SDS011;39611;46.062;8.950;2022-10-12T06:15:01;3.38;;;1.70;;
52440;SDS011;39611;46.062;8.950;2022-10-12T06:17:27;3.58;;;1.83;;
52440;SDS011;39611;46.062;8.950;2022-10-12T06:19:54;4.60;;;1.77;;
52440;SDS011;39611;46.062;8.950;2022-10-12T06:22:20;2.97;;;1.80;;
52440;SDS011;39611;46.062;8.950;2022-10-12T06:24:47;14.35;;;3.05;;
52440;SDS011;39611;46.062;8.950;2022-10-12T06:27:13;8.73;;;3.25;;
52440;SDS011;39611;46.062;8.950;2022-10-12T06:29:39;4.80;;;2.10;;
52440;SDS011;39611;46.062;8.950;2022-10-12T06:32:06;7.95;;;2.17;;
52440;SDS011;39611;46.062;8.950;2022-10-12T06:34:32;3.97;;;1.85;;
52440;SDS011;39611;46.062;8.950;2022-10-12T06:36:59;2.83;;;1.70;;
52440;SDS011;39611;46.062;8.950;2022-10-12T06:39:27;3.47;;;1.85;;
52440;SDS011;39611;46.062;8.950;2022-10-12T06:41:54;5.28;;;2.13;;
52440;SDS011;39611;46.062;8.950;2022-10-12T06:44:20;3.05;;;2.10;;
52440;SDS011;39611;46.062;8.950;2022-10-12T06:46:48;3.63;;;2.40;;
52440;SDS011;39611;46.062;8.950;2022-10-12T06:49:15;4.82;;;2.55;;
52440;SDS011;39611;46.062;8.950;2022-10-12T06:51:42;4.15;;;1.92;;
52440;SDS011;39611;46.062;8.950;2022-10-12T06:54:09;3.20;;;1.83;;
52440;SDS011;39611;46.062;8.950;2022-10-12T06:56:36;4.20;;;2.17;;
52440;SDS011;39611;46.062;8.950;2022-10-12T06:59:03;4.00;;;1.90;;
52440;SDS011;39611;46.062;8.950;2022-10-12T07:01:29;3.72;;;1.98;;
52440;SDS011;39611;46.062;8.950;2022-10-12T07:03:56;5.05;;;1.63;;
52440;SDS011;39611;46.062;8.950;2022-10-12T07:06:26;4.05;;;2.10;;
52440;SDS011;39611;46.062;8.950;2022-10-12T07:08:53;3.05;;;1.70;;
52440;SDS011;39611;46.062;8.950;2022-10-12T07:11:20;2.75;;;1.60;;
52440;SDS011;39611;46.062;8.950;2022-10-12T07:13:46;3.90;;;2.03;;
52440;SDS011;39611;46.062;8.950;2022-10-12T07:16:13;3.58;;;1.90;;
52440;SDS011;39611;46.062;8.950;2022-10-12T07:18:40;4.78;;;2.47;;
52440;SDS011;39611;46.062;8.950;2022-10-12T07:21:07;16.35;;;2.20;;
52440;SDS011;39611;46.062;8.950;2022-10-12T07:23:33;6.47;;;2.70;;
52440;SDS011;39611;46.062;8.950;2022-10-12T07:26:00;13.00;;;2.53;;
52440;SDS011;39611;46.062;8.950;2022-10-12T07:28:26;5.97;;;2.45;;
52440;SDS011;39611;46.062;8.950;2022-10-12T07:30:53;3.92;;;1.92;;
52440;SDS011;39611;46.062;8.950;2022-10-12T07:33:19;3.40;;;2.03;;
52440;SDS011;39611;46.062;8.950;2022-10-12T07:35:53;4.05;;;1.70;;
52440;SDS011;39611;46.062;8.950;2022-10-12T07:38:38;4.93;;;2.42;;
52440;SDS011;39611;46.062;8.950;2022-10-12T07:41:04;4.38;;;2.08;;
52440;SDS011;39611;46.062;8.950;2022-10-12T07:43:31;3.70;;;2.15;;
52440;SDS011;39611;46.062;8.950;2022-10-12T07:45:58;4.60;;;2.22;;
52440;SDS011;39611;46.062;8.950;2022-10-12T07:48:24;4.18;;;2.13;;
52440;SDS011;39611;46.062;8.950;2022-10-12T07:50:51;6.90;;;2.92;;
52440;SDS011;39611;46.062;8.950;2022-10-12T07:53:17;8.77;;;3.85;;
52440;SDS011;39611;46.062;8.950;2022-10-12T07:55:44;5.15;;;2.90;;
52440;SDS011;39611;46.062;8.950;2022-10-12T07:58:10;5.93;;;2.88;;
52440;SDS011;39611;46.062;8.950;2022-10-12T08:00:38;4.70;;;2.35;;
52440;SDS011;39611;46.062;8.950;2022-10-12T08:03:04;5.72;;;2.50;;
52440;SDS011;39611;46.062;8.950;2022-10-12T08:05:31;6.88;;;2.50;;
52440;SDS011;39611;46.062;8.950;2022-10-12T08:07:57;5.60;;;2.25;;
52440;SDS011;39611;46.062;8.950;2022-10-12T08:10:25;26.52;;;4.75;;
52440;SDS011;39611;46.062;8.950;2022-10-12T08:12:51;11.27;;;3.50;;
52440;SDS011;39611;46.062;8.950;2022-10-12T08:15:18;33.38;;;5.07;;
52440;SDS011;39611;46.062;8.950;2022-10-12T08:17:44;12.18;;;3.33;;
52440;SDS011;39611;46.062;8.950;2022-10-12T08:20:11;6.60;;;2.63;;
52440;SDS011;39611;46.062;8.950;2022-10-12T08:22:37;12.55;;;3.05;;
52440;SDS011;39611;46.062;8.950;2022-10-12T08:25:04;6.38;;;2.33;;
52440;SDS011;39611;46.062;8.950;2022-10-12T08:27:31;27.10;;;5.20;;
52440;SDS011;39611;46.062;8.950;2022-10-12T08:29:57;26.13;;;5.80;;
52440;SDS011;39611;46.062;8.950;2022-10-12T08:32:24;17.85;;;3.63;;
52440;SDS011;39611;46.062;8.950;2022-10-12T08:34:51;13.98;;;3.40;;
52440;SDS011;39611;46.062;8.950;2022-10-12T08:37:17;13.57;;;2.75;;
52440;SDS011;39611;46.062;8.950;2022-10-12T08:39:44;5.40;;;2.15;;
52440;SDS011;39611;46.062;8.950;2022-10-12T08:42:23;4.45;;;1.83;;
52440;SDS011;39611;46.062;8.950;2022-10-12T08:45:27;5.53;;;2.22;;
52440;SDS011;39611;46.062;8.950;2022-10-12T08:48:13;9.35;;;2.70;;
52440;SDS011;39611;46.062;8.950;2022-10-12T08:50:45;12.60;;;3.00;;
52440;SDS011;39611;46.062;8.950;2022-10-12T08:55:53;20.08;;;3.92;;
52440;SDS011;39611;46.062;8.950;2022-10-12T08:58:26;3.13;;;1.65;;
52440;SDS011;39611;46.062;8.950;2022-10-12T09:00:54;2.58;;;1.48;;
52440;SDS011;39611;46.062;8.950;2022-10-12T09:03:44;12.05;;;3.15;;
52440;SDS011;39611;46.062;8.950;2022-10-12T09:14:27;7.20;;;2.67;;
52440;SDS011;39611;46.062;8.950;2022-10-12T09:16:57;3.05;;;1.52;;
52440;SDS011;39611;46.062;8.950;2022-10-12T09:19:31;8.35;;;2.15;;
52440;SDS011;39611;46.062;8.950;2022-10-12T09:22:03;9.98;;;2.42;;
52440;SDS011;39611;46.062;8.950;2022-10-12T09:24:35;101.75;;;14.27;;
52440;SDS011;39611;46.062;8.950;2022-10-12T09:27:12;36.05;;;9.32;;
52440;SDS011;39611;46.062;8.950;2022-10-12T09:29:40;7.47;;;2.42;;
52440;SDS011;39611;46.062;8.950;2022-10-12T09:32:21;17.65;;;4.50;;
52440;SDS011;39611;46.062;8.950;2022-10-12T09:34:52;7.53;;;2.30;;
52440;SDS011;39611;46.062;8.950;2022-10-12T09:37:20;3.95;;;1.90;;
52440;SDS011;39611;46.062;8.950;2022-10-12T09:39:49;2.78;;;1.30;;
52440;SDS011;39611;46.062;8.950;2022-10-12T09:42:16;5.70;;;1.80;;
52440;SDS011;39611;46.062;8.950;2022-10-12T09:44:45;4.40;;;1.73;;
52440;SDS011;39611;46.062;8.950;2022-10-12T09:49:46;5.85;;;1.75;;
52440;SDS011;39611;46.062;8.950;2022-10-12T09:52:21;84.35;;;13.13;;
52440;SDS011;39611;46.062;8.950;2022-10-12T09:54:59;5.75;;;2.47;;
52440;SDS011;39611;46.062;8.950;2022-10-12T09:57:38;4.20;;;2.15;;
52440;SDS011;39611;46.062;8.950;2022-10-12T10:02:54;10.32;;;2.30;;
52440;SDS011;39611;46.062;8.950;2022-10-12T10:07:48;3.75;;;1.90;;
52440;SDS011;39611;46.062;8.950;2022-10-12T10:10:21;4.28;;;1.90;;
52440;SDS011;39611;46.062;8.950;2022-10-12T10:12:56;4.07;;;2.10;;
52440;SDS011;39611;46.062;8.950;2022-10-12T10:15:29;6.47;;;2.30;;
52440;SDS011;39611;46.062;8.950;2022-10-12T10:17:58;3.60;;;1.92;;
52440;SDS011;39611;46.062;8.950;2022-10-12T10:20:43;4.05;;;1.95;;
52440;SDS011;39611;46.062;8.950;2022-10-12T10:24:19;5.18;;;2.38;;
52440;SDS011;39611;46.062;8.950;2022-10-12T10:26:21;4.40;;;2.45;;
52440;SDS011;39611;46.062;8.950;2022-10-12T10:28:51;5.03;;;2.70;;
52440;SDS011;39611;46.062;8.950;2022-10-12T10:31:23;6.32;;;2.60;;
52440;SDS011;39611;46.062;8.950;2022-10-12T10:34:06;6.55;;;3.50;;
52440;SDS011;39611;46.062;8.950;2022-10-12T10:36:37;4.85;;;2.55;;
52440;SDS011;39611;46.062;8.950;2022-10-12T10:39:22;6.15;;;2.67;;
52440;SDS011;39611;46.062;8.950;2022-10-12T10:41:52;5.65;;;2.45;;
52440;SDS011;39611;46.062;8.950;2022-10-12T10:44:23;6.97;;;3.13;;
52440;SDS011;39611;46.062;8.950;2022-10-12T10:46:50;10.02;;;5.30;;
52440;SDS011;39611;46.062;8.950;2022-10-12T10:52:18;7.32;;;3.97;;
52440;SDS011;39611;46.062;8.950;2022-10-12T10:54:47;7.97;;;4.30;;
52440;SDS011;39611;46.062;8.950;2022-10-12T10:59:56;10.52;;;4.35;;
52440;SDS011;39611;46.062;8.950;2022-10-12T11:02:51;9.45;;;4.25;;
52440;SDS011;39611;46.062;8.950;2022-10-12T11:05:35;8.02;;;4.68;;
52440;SDS011;39611;46.062;8.950;2022-10-12T11:11:02;11.90;;;5.72;;
52440;SDS011;39611;46.062;8.950;2022-10-12T11:13:37;12.00;;;5.55;;
52440;SDS011;39611;46.062;8.950;2022-10-12T11:19:14;10.35;;;5.07;;
52440;SDS011;39611;46.062;8.950;2022-10-12T11:22:04;38.55;;;10.10;;
52440;SDS011;39611;46.062;8.950;2022-10-12T11:24:44;26.55;;;7.93;;
52440;SDS011;39611;46.062;8.950;2022-10-12T11:27:25;9.95;;;4.70;;
52440;SDS011;39611;46.062;8.950;2022-10-12T11:29:58;11.67;;;5.70;;
52440;SDS011;39611;46.062;8.950;2022-10-12T11:32:37;11.88;;;5.18;;
52440;SDS011;39611;46.062;8.950;2022-10-12T11:35:21;10.02;;;4.53;;
52440;SDS011;39611;46.062;8.950;2022-10-12T11:38:13;11.93;;;5.10;;
52440;SDS011;39611;46.062;8.950;2022-10-12T11:43:37;38.97;;;9.00;;
52440;SDS011;39611;46.062;8.950;2022-10-12T11:46:29;22.35;;;6.97;;
52440;SDS011;39611;46.062;8.950;2022-10-12T11:49:12;17.00;;;6.18;;
52440;SDS011;39611;46.062;8.950;2022-10-12T11:51:51;27.70;;;7.82;;
52440;SDS011;39611;46.062;8.950;2022-10-12T11:54:27;24.50;;;5.90;;
52440;SDS011;39611;46.062;8.950;2022-10-12T11:57:00;26.63;;;8.10;;
52440;SDS011;39611;46.062;8.950;2022-10-12T11:59:32;14.45;;;6.30;;
52440;SDS011;39611;46.062;8.950;2022-10-12T12:04:52;12.15;;;6.00;;
52440;SDS011;39611;46.062;8.950;2022-10-12T12:18:14;10.25;;;4.78;;
52440;SDS011;39611;46.062;8.950;2022-10-12T12:23:18;15.30;;;6.00;;
52440;SDS011;39611;46.062;8.950;2022-10-12T12:28:31;13.13;;;5.43;;
52440;SDS011;39611;46.062;8.950;2022-10-12T12:31:03;25.17;;;10.57;;
52440;SDS011;39611;46.062;8.950;2022-10-12T12:33:33;13.90;;;6.22;;
52440;SDS011;39611;46.062;8.950;2022-10-12T12:36:04;9.27;;;5.25;;
52440;SDS011;39611;46.062;8.950;2022-10-12T12:38:33;12.75;;;5.75;;
52440;SDS011;39611;46.062;8.950;2022-10-12T12:41:07;23.15;;;7.80;;
52440;SDS011;39611;46.062;8.950;2022-10-12T12:43:49;16.00;;;6.47;;
52440;SDS011;39611;46.062;8.950;2022-10-12T12:46:18;11.93;;;6.15;;
52440;SDS011;39611;46.062;8.950;2022-10-12T12:51:13;12.00;;;5.45;;
52440;SDS011;39611;46.062;8.950;2022-10-12T13:04:20;9.63;;;5.13;;
52440;SDS011;39611;46.062;8.950;2022-10-12T13:10:29;10.68;;;4.50;;
52440;SDS011;39611;46.062;8.950;2022-10-12T13:12:45;9.93;;;4.80;;
52440;SDS011;39611;46.062;8.950;2022-10-12T13:21:20;11.45;;;5.63;;
52440;SDS011;39611;46.062;8.950;2022-10-12T13:23:52;10.20;;;4.85;;
52440;SDS011;39611;46.062;8.950;2022-10-12T13:26:38;12.85;;;5.88;;
52440;SDS011;39611;46.062;8.950;2022-10-12T13:29:15;15.68;;;6.95;;
52440;SDS011;39611;46.062;8.950;2022-10-12T13:31:53;13.32;;;6.95;;
52440;SDS011;39611;46.062;8.950;2022-10-12T13:34:31;14.43;;;6.45;;
52440;SDS011;39611;46.062;8.950;2022-10-12T13:37:10;17.88;;;7.70;;
52440;SDS011;39611;46.062;8.950;2022-10-12T13:39:39;14.85;;;6.88;;
52440;SDS011;39611;46.062;8.950;2022-10-12T13:42:10;13.32;;;5.13;;
52440;SDS011;39611;46.062;8.950;2022-10-12T13:44:40;31.17;;;8.70;;
52440;SDS011;39611;46.062;8.950;2022-10-12T13:47:27;17.85;;;7.40;;
52440;SDS011;39611;46.062;8.950;2022-10-12T13:50:25;14.95;;;5.60;;
52440;SDS011;39611;46.062;8.950;2022-10-12T13:52:52;11.73;;;5.45;;
52440;SDS011;39611;46.062;8.950;2022-10-12T13:55:23;43.33;;;9.52;;
52440;SDS011;39611;46.062;8.950;2022-10-12T13:57:51;33.55;;;9.15;;
52440;SDS011;39611;46.062;8.950;2022-10-12T14:00:19;10.43;;;5.05;;
52440;SDS011;39611;46.062;8.950;2022-10-12T14:03:00;12.35;;;5.05;;
52440;SDS011;39611;46.062;8.950;2022-10-12T14:05:29;14.07;;;5.00;;
52440;SDS011;39611;46.062;8.950;2022-10-12T14:08:02;100.47;;;20.55;;
52440;SDS011;39611;46.062;8.950;2022-10-12T14:10:36;51.47;;;11.82;;
52440;SDS011;39611;46.062;8.950;2022-10-12T14:13:04;26.75;;;7.10;;
52440;SDS011;39611;46.062;8.950;2022-10-12T14:15:36;17.45;;;7.13;;
52440;SDS011;39611;46.062;8.950;2022-10-12T14:18:29;15.07;;;5.47;;
52440;SDS011;39611;46.062;8.950;2022-10-12T14:21:13;12.00;;;5.05;;
52440;SDS011;39611;46.062;8.950;2022-10-12T14:23:41;12.95;;;5.72;;
52440;SDS011;39611;46.062;8.950;2022-10-12T14:26:19;12.40;;;5.13;;
52440;SDS011;39611;46.062;8.950;2022-10-12T14:28:50;10.35;;;5.28;;
52440;SDS011;39611;46.062;8.950;2022-10-12T14:31:17;10.77;;;5.07;;
52440;SDS011;39611;46.062;8.950;2022-10-12T14:33:43;13.38;;;5.78;;
52440;SDS011;39611;46.062;8.950;2022-10-12T14:38:39;9.68;;;5.40;;
52440;SDS011;39611;46.062;8.950;2022-10-12T14:44:16;7.60;;;4.60;;
52440;SDS011;39611;46.062;8.950;2022-10-12T14:49:39;10.30;;;5.78;;
52440;SDS011;39611;46.062;8.950;2022-10-12T14:52:22;8.48;;;4.20;;
52440;SDS011;39611;46.062;8.950;2022-10-12T14:54:53;10.43;;;5.47;;
52440;SDS011;39611;46.062;8.950;2022-10-12T14:57:27;12.38;;;5.82;;
52440;SDS011;39611;46.062;8.950;2022-10-12T14:59:55;11.43;;;5.38;;
52440;SDS011;39611;46.062;8.950;2022-10-12T15:02:26;7.68;;;5.00;;
52440;SDS011;39611;46.062;8.950;2022-10-12T15:04:54;9.53;;;5.13;;
52440;SDS011;39611;46.062;8.950;2022-10-12T15:09:58;12.77;;;5.45;;
52440;SDS011;39611;46.062;8.950;2022-10-12T15:12:26;10.68;;;5.00;;
52440;SDS011;39611;46.062;8.950;2022-10-12T15:14:55;10.43;;;5.18;;
52440;SDS011;39611;46.062;8.950;2022-10-12T15:17:24;12.80;;;5.60;;
52440;SDS011;39611;46.062;8.950;2022-10-12T15:19:51;12.82;;;5.75;;
52440;SDS011;39611;46.062;8.950;2022-10-12T15:22:22;13.13;;;5.50;;
52440;SDS011;39611;46.062;8.950;2022-10-12T15:27:18;15.10;;;6.00;;
52440;SDS011;39611;46.062;8.950;2022-10-12T15:29:45;11.27;;;5.57;;
52440;SDS011;39611;46.062;8.950;2022-10-12T15:32:14;12.18;;;5.22;;
52440;SDS011;39611;46.062;8.950;2022-10-12T15:34:41;13.38;;;5.70;;
52440;SDS011;39611;46.062;8.950;2022-10-12T15:37:08;13.30;;;6.05;;
52440;SDS011;39611;46.062;8.950;2022-10-12T15:39:35;10.85;;;5.43;;
52440;SDS011;39611;46.062;8.950;2022-10-12T15:42:02;12.77;;;6.60;;
52440;SDS011;39611;46.062;8.950;2022-10-12T15:44:28;13.65;;;6.00;;
52440;SDS011;39611;46.062;8.950;2022-10-12T15:46:55;13.32;;;5.82;;
52440;SDS011;39611;46.062;8.950;2022-10-12T15:49:21;10.52;;;6.03;;
52440;SDS011;39611;46.062;8.950;2022-10-12T15:51:50;12.50;;;5.70;;
52440;SDS011;39611;46.062;8.950;2022-10-12T15:54:18;15.02;;;6.45;;
52440;SDS011;39611;46.062;8.950;2022-10-12T15:56:44;11.73;;;5.53;;
52440;SDS011;39611;46.062;8.950;2022-10-12T15:59:11;12.00;;;5.82;;
52440;SDS011;39611;46.062;8.950;2022-10-12T16:01:37;13.02;;;6.07;;
52440;SDS011;39611;46.062;8.950;2022-10-12T16:04:05;12.05;;;6.00;;
52440;SDS011;39611;46.062;8.950;2022-10-12T16:06:32;14.82;;;6.25;;
52440;SDS011;39611;46.062;8.950;2022-10-12T16:08:58;12.65;;;5.70;;
52440;SDS011;39611;46.062;8.950;2022-10-12T16:11:25;10.65;;;5.82;;
52440;SDS011;39611;46.062;8.950;2022-10-12T16:13:51;13.07;;;5.55;;
52440;SDS011;39611;46.062;8.950;2022-10-12T16:16:22;10.77;;;5.60;;
52440;SDS011;39611;46.062;8.950;2022-10-12T16:18:48;11.95;;;6.22;;
52440;SDS011;39611;46.062;8.950;2022-10-12T16:21:16;11.40;;;5.90;;
52440;SDS011;39611;46.062;8.950;2022-10-12T16:23:42;12.95;;;5.97;;
52440;SDS011;39611;46.062;8.950;2022-10-12T16:26:10;13.15;;;6.35;;
52440;SDS011;39611;46.062;8.950;2022-10-12T16:28:40;14.23;;;6.47;;
52440;SDS011;39611;46.062;8.950;2022-10-12T16:31:11;13.13;;;6.50;;
52440;SDS011;39611;46.062;8.950;2022-10-12T16:33:41;9.45;;;5.38;;
52440;SDS011;39611;46.062;8.950;2022-10-12T16:36:08;12.80;;;6.13;;
52440;SDS011;39611;46.062;8.950;2022-10-12T16:38:36;10.85;;;5.13;;
52440;SDS011;39611;46.062;8.950;2022-10-12T16:41:12;11.88;;;5.60;;
52440;SDS011;39611;46.062;8.950;2022-10-12T16:43:41;46.88;;;21.15;;
52440;SDS011;39611;46.062;8.950;2022-10-12T16:46:07;25.75;;;11.52;;
52440;SDS011;39611;46.062;8.950;2022-10-12T16:48:34;72.07;;;25.92;;
52440;SDS011;39611;46.062;8.950;2022-10-12T16:51:05;25.58;;;11.43;;
52440;SDS011;39611;46.062;8.950;2022-10-12T16:53:35;111.63;;;40.22;;
52440;SDS011;39611;46.062;8.950;2022-10-12T16:56:02;121.22;;;49.78;;